
Distance (Route):
Temperature : -15.5°C
Humidity : 0%
Pressure : 0hPa| Receiver | Frames | First received | Last received |
|---|---|---|---|
| KE7DJD | 242 | 2026-09-05 23:46:37 | 2026-09-06 01:12:10 |
| Receiver | Date | Latitude | Longitude | Direction | Speed | Altitude | Climb | Temperature | Humidity | Pressure | Voltage | Killtimer | Uptime | BKT | XDATA |
|---|---|---|---|---|---|---|---|---|---|---|---|---|---|---|---|
| KE7DJD | 2026-09-06 01:12:10 | 41.70334 | -114.92695 | 37° | 82km/h | 7022m | -7.8m/s | -15.5°C | 0% | 0hPa | 0V | 00:00:00 | 00:00:00 | 00:00:00 | |
| KE7DJD | 2026-09-06 01:11:38 | 41.69745 | -114.93182 | 31° | 97km/h | 7259m | -8.0m/s | -15.6°C | 0% | 0hPa | 0V | 00:00:00 | 00:00:00 | 00:00:00 | |
| KE7DJD | 2026-09-06 01:11:17 | 41.69267 | -114.93537 | 29° | 100km/h | 7431m | -7.6m/s | -16.4°C | 0% | 0hPa | 0V | 00:00:00 | 00:00:00 | 00:00:00 | |
| KE7DJD | 2026-09-06 01:10:56 | 41.68785 | -114.93875 | 30° | 104km/h | 7589m | -7.9m/s | -17.4°C | 0% | 0hPa | 0V | 00:00:00 | 00:00:00 | 00:00:00 | |
| KE7DJD | 2026-09-06 01:10:34 | 41.68276 | -114.94256 | 31° | 106km/h | 7758m | -7.4m/s | -19.0°C | 0% | 0hPa | 0V | 00:00:00 | 00:00:00 | 00:00:00 | |
| KE7DJD | 2026-09-06 01:10:13 | 41.67828 | -114.94629 | 34° | 102km/h | 7915m | -8.0m/s | -20.0°C | 0% | 0hPa | 0V | 00:00:00 | 00:00:00 | 00:00:00 | |
| KE7DJD | 2026-09-06 01:09:53 | 41.67353 | -114.95050 | 36° | 110km/h | 8086m | -8.2m/s | -20.9°C | 0% | 0hPa | 0V | 00:00:00 | 00:00:00 | 00:00:00 | |
| KE7DJD | 2026-09-06 01:09:33 | 41.66896 | -114.95494 | 37° | 115km/h | 8256m | -8.8m/s | -22.1°C | 0% | 0hPa | 0V | 00:00:00 | 00:00:00 | 00:00:00 | |
| KE7DJD | 2026-09-06 01:09:12 | 41.66390 | -114.95966 | 36° | 117km/h | 8441m | -8.9m/s | -23.4°C | 0% | 0hPa | 0V | 00:00:00 | 00:00:00 | 00:00:00 | |
| KE7DJD | 2026-09-06 01:08:51 | 41.65899 | -114.96419 | 35° | 120km/h | 8618m | -9.0m/s | -24.9°C | 0% | 0hPa | 0V | 00:00:00 | 00:00:00 | 00:00:00 | |
| KE7DJD | 2026-09-06 01:08:31 | 41.65375 | -114.96923 | 37° | 120km/h | 8807m | -9.3m/s | -26.4°C | 0% | 0hPa | 0V | 00:00:00 | 00:00:00 | 00:00:00 | |
| KE7DJD | 2026-09-06 01:08:10 | 41.64894 | -114.97428 | 40° | 120km/h | 9001m | -9.7m/s | -28.0°C | 0% | 0hPa | 0V | 00:00:00 | 00:00:00 | 00:00:00 | |
| KE7DJD | 2026-09-06 01:07:50 | 41.64382 | -114.97960 | 38° | 124km/h | 9211m | -9.9m/s | -29.7°C | 0% | 0hPa | 0V | 00:00:00 | 00:00:00 | 00:00:00 | |
| KE7DJD | 2026-09-06 01:07:29 | 41.63880 | -114.98475 | 38° | 130km/h | 9409m | -10.3m/s | -31.1°C | 0% | 0hPa | 0V | 00:00:00 | 00:00:00 | 00:00:00 | |
| KE7DJD | 2026-09-06 01:07:09 | 41.63314 | -114.99001 | 35° | 130km/h | 9628m | -10.8m/s | -32.8°C | 0% | 0hPa | 0V | 00:00:00 | 00:00:00 | 00:00:00 | |
| KE7DJD | 2026-09-06 01:06:48 | 41.62764 | -114.99509 | 38° | 137km/h | 9831m | -10.6m/s | -34.3°C | 0% | 0hPa | 0V | 00:00:00 | 00:00:00 | 00:00:00 | |
| KE7DJD | 2026-09-06 01:06:28 | 41.62168 | -115.00100 | 39° | 142km/h | 10039m | -10.6m/s | -35.9°C | 0% | 0hPa | 0V | 00:00:00 | 00:00:00 | 00:00:00 | |
| KE7DJD | 2026-09-06 01:06:06 | 41.61549 | -115.00729 | 38° | 148km/h | 10253m | -10.1m/s | -37.5°C | 0% | 0hPa | 0V | 00:00:00 | 00:00:00 | 00:00:00 | |
| KE7DJD | 2026-09-06 01:05:46 | 41.60945 | -115.01337 | 39° | 151km/h | 10454m | -9.6m/s | -38.9°C | 0% | 0hPa | 0V | 00:00:00 | 00:00:00 | 00:00:00 | |
| KE7DJD | 2026-09-06 01:05:25 | 41.60299 | -115.02023 | 40° | 157km/h | 10664m | -9.7m/s | -40.3°C | 0% | 0hPa | 0V | 00:00:00 | 00:00:00 | 00:00:00 | |
| KE7DJD | 2026-09-06 01:05:05 | 41.59663 | -115.02676 | 37° | 162km/h | 10873m | -10.6m/s | -41.8°C | 0% | 0hPa | 0V | 00:00:00 | 00:00:00 | 00:00:00 | |
| KE7DJD | 2026-09-06 01:04:45 | 41.58968 | -115.03401 | 39° | 162km/h | 11087m | -10.0m/s | -42.8°C | 0% | 0hPa | 0V | 00:00:00 | 00:00:00 | 00:00:00 | |
| KE7DJD | 2026-09-06 01:04:24 | 41.58341 | -115.04062 | 40° | 157km/h | 11289m | -10.4m/s | -44.1°C | 0% | 0hPa | 0V | 00:00:00 | 00:00:00 | 00:00:00 | |
| KE7DJD | 2026-09-06 01:04:04 | 41.57710 | -115.04760 | 41° | 153km/h | 11520m | -11.1m/s | -44.5°C | 0% | 0hPa | 0V | 00:00:00 | 00:00:00 | 00:00:00 | |
| KE7DJD | 2026-09-06 01:03:43 | 41.57129 | -115.05447 | 45° | 153km/h | 11747m | -11.4m/s | -45.3°C | 0% | 0hPa | 0V | 00:00:00 | 00:00:00 | 00:00:00 | |
| KE7DJD | 2026-09-06 01:03:23 | 41.56556 | -115.06206 | 44° | 148km/h | 11996m | -12.2m/s | -46.2°C | 0% | 0hPa | 0V | 00:00:00 | 00:00:00 | 00:00:00 | |
| KE7DJD | 2026-09-06 01:03:02 | 41.55980 | -115.06949 | 45° | 164km/h | 12259m | -12.6m/s | -46.8°C | 0% | 0hPa | 0V | 00:00:00 | 00:00:00 | 00:00:00 | |
| KE7DJD | 2026-09-06 01:02:42 | 41.55361 | -115.07677 | 44° | 161km/h | 12516m | -12.8m/s | -45.1°C | 0% | 0hPa | 0V | 00:00:00 | 00:00:00 | 00:00:00 | |
| KE7DJD | 2026-09-06 01:02:21 | 41.54808 | -115.08422 | 49° | 148km/h | 12780m | -13.6m/s | -44.2°C | 0% | 0hPa | 0V | 00:00:00 | 00:00:00 | 00:00:00 | |
| KE7DJD | 2026-09-06 01:02:01 | 41.54299 | -115.09167 | 49° | 133km/h | 13062m | -13.6m/s | -44.7°C | 0% | 0hPa | 0V | 00:00:00 | 00:00:00 | 00:00:00 | |
| KE7DJD | 2026-09-06 01:01:40 | 41.53891 | -115.09787 | 49° | 111km/h | 13323m | -14.1m/s | -45.3°C | 0% | 0hPa | 0V | 00:00:00 | 00:00:00 | 00:00:00 | |
| KE7DJD | 2026-09-06 01:01:20 | 41.53503 | -115.10382 | 52° | 106km/h | 13613m | -13.3m/s | -45.8°C | 0% | 0hPa | 0V | 00:00:00 | 00:00:00 | 00:00:00 | |
| KE7DJD | 2026-09-06 01:00:59 | 41.53155 | -115.10909 | 47° | 108km/h | 13884m | -13.3m/s | -46.4°C | 0% | 0hPa | 0V | 00:00:00 | 00:00:00 | 00:00:00 | |
| KE7DJD | 2026-09-06 01:00:18 | 41.52459 | -115.11873 | 45° | 78km/h | 14468m | -14.2m/s | -46.7°C | 0% | 0hPa | 0V | 00:00:00 | 00:00:00 | 00:00:00 | |
| KE7DJD | 2026-09-06 00:59:57 | 41.52144 | -115.12218 | 37° | 89km/h | 14748m | -14.1m/s | -47.8°C | 0% | 0hPa | 0V | 00:00:00 | 00:00:00 | 00:00:00 | |
| KE7DJD | 2026-09-06 00:59:37 | 41.51737 | -115.12610 | 38° | 95km/h | 15042m | -14.0m/s | -48.1°C | 0% | 0hPa | 0V | 00:00:00 | 00:00:00 | 00:00:00 | |
| KE7DJD | 2026-09-06 00:59:17 | 41.51384 | -115.12941 | 37° | 78km/h | 15320m | -14.8m/s | -49.2°C | 0% | 0hPa | 0V | 00:00:00 | 00:00:00 | 00:00:00 | |
| KE7DJD | 2026-09-06 00:58:56 | 41.51067 | -115.13272 | 44° | 77km/h | 15622m | -14.9m/s | -49.9°C | 0% | 0hPa | 0V | 00:00:00 | 00:00:00 | 00:00:00 | |
| KE7DJD | 2026-09-06 00:58:35 | 41.50780 | -115.13585 | 38° | 77km/h | 15917m | -14.5m/s | -50.7°C | 0% | 0hPa | 0V | 00:00:00 | 00:00:00 | 00:00:00 | |
| KE7DJD | 2026-09-06 00:58:15 | 41.50543 | -115.13901 | 51° | 40km/h | 16237m | -16.1m/s | -49.4°C | 0% | 0hPa | 0V | 00:00:00 | 00:00:00 | 00:00:00 | |
| KE7DJD | 2026-09-06 00:57:54 | 41.50398 | -115.14033 | 17° | 35km/h | 16558m | -15.8m/s | -51.0°C | 0% | 0hPa | 0V | 00:00:00 | 00:00:00 | 00:00:00 | |
| KE7DJD | 2026-09-06 00:57:34 | 41.50175 | -115.14095 | 23° | 49km/h | 16892m | -15.7m/s | -51.7°C | 0% | 0hPa | 0V | 00:00:00 | 00:00:00 | 00:00:00 | |
| KE7DJD | 2026-09-06 00:57:13 | 41.49916 | -115.14290 | 34° | 64km/h | 17218m | -16.4m/s | -52.5°C | 0% | 0hPa | 0V | 00:00:00 | 00:00:00 | 00:00:00 | |
| KE7DJD | 2026-09-06 00:56:53 | 41.49634 | -115.14501 | 32° | 68km/h | 17581m | -17.3m/s | -54.6°C | 0% | 0hPa | 0V | 00:00:00 | 00:00:00 | 00:00:00 | |
| KE7DJD | 2026-09-06 00:56:32 | 41.49396 | -115.14775 | 57° | 57km/h | 17930m | -18.2m/s | -50.9°C | 0% | 0hPa | 0V | 00:00:00 | 00:00:00 | 00:00:00 | |
| KE7DJD | 2026-09-06 00:56:12 | 41.49279 | -115.14998 | 52° | 22km/h | 18311m | -18.8m/s | -51.6°C | 0% | 0hPa | 0V | 00:00:00 | 00:00:00 | 00:00:00 | |
| KE7DJD | 2026-09-06 00:55:51 | 41.49187 | -115.15106 | 46° | 24km/h | 18709m | -19.8m/s | -51.4°C | 0% | 0hPa | 0V | 00:00:00 | 00:00:00 | 00:00:00 | |
| KE7DJD | 2026-09-06 00:55:30 | 41.49135 | -115.15143 | 13° | 9km/h | 19096m | -20.6m/s | -49.5°C | 0% | 0hPa | 0V | 00:00:00 | 00:00:00 | 00:00:00 | |
| KE7DJD | 2026-09-06 00:55:10 | 41.49072 | -115.15136 | 330° | 11km/h | 19522m | -21.0m/s | -51.1°C | 0% | 0hPa | 0V | 00:00:00 | 00:00:00 | 00:00:00 | |
| KE7DJD | 2026-09-06 00:54:49 | 41.49043 | -115.15137 | 58° | 9km/h | 19935m | -21.3m/s | -51.2°C | 0% | 0hPa | 0V | 00:00:00 | 00:00:00 | 00:00:00 | |
| KE7DJD | 2026-09-06 00:54:29 | 41.49065 | -115.15140 | 300° | 4km/h | 20392m | -22.1m/s | -49.2°C | 0% | 0hPa | 0V | 00:00:00 | 00:00:00 | 00:00:00 | |
| KE7DJD | 2026-09-06 00:54:08 | 41.48995 | -115.15096 | 15° | 16km/h | 20839m | -22.8m/s | -49.7°C | 0% | 0hPa | 0V | 00:00:00 | 00:00:00 | 00:00:00 | |
| KE7DJD | 2026-09-06 00:53:48 | 41.48980 | -115.15079 | 263° | 16km/h | 21321m | -23.2m/s | -49.6°C | 0% | 0hPa | 0V | 00:00:00 | 00:00:00 | 00:00:00 | |
| KE7DJD | 2026-09-06 00:53:28 | 41.48979 | -115.14985 | 190° | 7km/h | 21797m | -23.5m/s | -49.4°C | 0% | 0hPa | 0V | 00:00:00 | 00:00:00 | 00:00:00 | |
| KE7DJD | 2026-09-06 00:53:07 | 41.48972 | -115.14876 | 258° | 13km/h | 22320m | -25.5m/s | -48.9°C | 0% | 0hPa | 0V | 00:00:00 | 00:00:00 | 00:00:00 | |
| KE7DJD | 2026-09-06 00:52:46 | 41.48970 | -115.14769 | 269° | 16km/h | 22854m | -25.9m/s | -47.6°C | 0% | 0hPa | 0V | 00:00:00 | 00:00:00 | 00:00:00 | |
| KE7DJD | 2026-09-06 00:52:05 | 41.48938 | -115.14634 | 266° | 24km/h | 23932m | -27.4m/s | -47.8°C | 0% | 0hPa | 0V | 00:00:00 | 00:00:00 | 00:00:00 | |
| KE7DJD | 2026-09-06 00:51:45 | 41.48889 | -115.14535 | 142° | 2km/h | 24532m | -29.8m/s | -46.0°C | 0% | 0hPa | 0V | 00:00:00 | 00:00:00 | 00:00:00 | |
| KE7DJD | 2026-09-06 00:51:24 | 41.48951 | -115.14488 | 213° | 27km/h | 25116m | -30.6m/s | -43.6°C | 0% | 0hPa | 0V | 00:00:00 | 00:00:00 | 00:00:00 | |
| KE7DJD | 2026-09-06 00:51:04 | 41.49039 | -115.14417 | 199° | 20km/h | 25767m | -31.8m/s | -43.9°C | 0% | 0hPa | 0V | 00:00:00 | 00:00:00 | 00:00:00 | |
| KE7DJD | 2026-09-06 00:50:44 | 41.49117 | -115.14309 | 269° | 37km/h | 26409m | -32.1m/s | -43.0°C | 0% | 0hPa | 0V | 00:00:00 | 00:00:00 | 00:00:00 | |
| KE7DJD | 2026-09-06 00:50:23 | 41.49099 | -115.14188 | 316° | 16km/h | 27099m | -31.7m/s | -41.9°C | 0% | 0hPa | 0V | 00:00:00 | 00:00:00 | 00:00:00 | |
| KE7DJD | 2026-09-06 00:50:01 | 41.49037 | -115.14188 | 63° | 11km/h | 27612m | -14.5m/s | -40.3°C | 0% | 0hPa | 0V | 00:00:00 | 00:00:00 | 00:00:00 | |
| KE7DJD | 2026-09-06 00:49:41 | 41.49039 | -115.14246 | 164° | 4km/h | 27993m | -19.7m/s | -38.7°C | 0% | 0hPa | 0V | 00:00:00 | 00:00:00 | 00:00:00 | |
| KE7DJD | 2026-09-06 00:49:21 | 41.49086 | -115.14303 | 176° | 11km/h | 28370m | -22.0m/s | -37.9°C | 0% | 0hPa | 0V | 00:00:00 | 00:00:00 | 00:00:00 | |
| KE7DJD | 2026-09-06 00:49:00 | 41.49123 | -115.14324 | 0° | 0km/h | 28739m | -21.3m/s | -38.6°C | 0% | 0hPa | 0V | 00:00:00 | 00:00:00 | 00:00:00 | |
| KE7DJD | 2026-09-06 00:48:40 | 41.49115 | -115.14348 | 185° | 5km/h | 29172m | -16.9m/s | -39.0°C | 0% | 0hPa | 0V | 00:00:00 | 00:00:00 | 00:00:00 | |
| KE7DJD | 2026-09-06 00:48:19 | 41.49085 | -115.14290 | 7° | 18km/h | 29593m | -21.8m/s | -37.2°C | 0% | 0hPa | 0V | 00:00:00 | 00:00:00 | 00:00:00 | |
| KE7DJD | 2026-09-06 00:47:59 | 41.49009 | -115.14273 | 8° | 18km/h | 30039m | -26.6m/s | -35.9°C | 0% | 0hPa | 0V | 00:00:00 | 00:00:00 | 00:00:00 | |
| KE7DJD | 2026-09-06 00:47:39 | 41.48940 | -115.14330 | 353° | 18km/h | 30497m | -22.2m/s | -35.4°C | 0% | 0hPa | 0V | 00:00:00 | 00:00:00 | 00:00:00 | |
| KE7DJD | 2026-09-06 00:47:18 | 41.48952 | -115.14351 | 160° | 16km/h | 30955m | -23.1m/s | -36.1°C | 0% | 0hPa | 0V | 00:00:00 | 00:00:00 | 00:00:00 | |
| KE7DJD | 2026-09-06 00:46:57 | 41.48986 | -115.14373 | 99° | 13km/h | 31400m | -17.0m/s | -36.4°C | 0% | 0hPa | 0V | 00:00:00 | 00:00:00 | 00:00:00 | |
| KE7DJD | 2026-09-06 00:46:37 | 41.49051 | -115.14364 | 220° | 22km/h | 31879m | -28.4m/s | -36.5°C | 0% | 0hPa | 0V | 00:00:00 | 00:00:00 | 00:00:00 | |
| KE7DJD | 2026-09-06 00:46:16 | 41.49153 | -115.14291 | 182° | 22km/h | 32374m | -23.8m/s | -35.3°C | 0% | 0hPa | 0V | 00:00:00 | 00:00:00 | 00:00:00 | |
| KE7DJD | 2026-09-06 00:45:54 | 41.49223 | -115.14280 | 196° | 9km/h | 32866m | -29.4m/s | -32.9°C | 0% | 0hPa | 0V | 00:00:00 | 00:00:00 | 00:00:00 | |
| KE7DJD | 2026-09-06 00:45:35 | 41.49277 | -115.14227 | 0° | 0km/h | 33409m | -22.8m/s | -31.6°C | 0% | 0hPa | 0V | 00:00:00 | 00:00:00 | 00:00:00 | |
| KE7DJD | 2026-09-06 00:45:13 | 41.49272 | -115.14142 | 268° | 24km/h | 33916m | -24.2m/s | -29.0°C | 0% | 0hPa | 0V | 00:00:00 | 00:00:00 | 00:00:00 | |
| KE7DJD | 2026-09-06 00:44:53 | 41.49208 | -115.14146 | 339° | 31km/h | 34332m | 4.5m/s | -28.7°C | 0% | 0hPa | 0V | 00:00:00 | 00:00:00 | 00:00:00 | |
| KE7DJD | 2026-09-06 00:44:32 | 41.49157 | -115.14186 | 351° | 46km/h | 34214m | 5.8m/s | -29.5°C | 0% | 0hPa | 0V | 00:00:00 | 00:00:00 | 00:00:00 | |
| KE7DJD | 2026-09-06 00:44:12 | 41.49107 | -115.14181 | 339° | 18km/h | 34100m | 5.4m/s | -29.2°C | 0% | 0hPa | 0V | 00:00:00 | 00:00:00 | 00:00:00 | |
| KE7DJD | 2026-09-06 00:43:51 | 41.49048 | -115.14105 | 296° | 66km/h | 33994m | 5.8m/s | -29.4°C | 0% | 0hPa | 0V | 00:00:00 | 00:00:00 | 00:00:00 | |
| KE7DJD | 2026-09-06 00:43:28 | 41.48992 | -115.13986 | 203° | 33km/h | 33868m | 1.2m/s | -30.0°C | 0% | 0hPa | 0V | 00:00:00 | 00:00:00 | 00:00:00 | |
| KE7DJD | 2026-09-06 00:43:06 | 41.48966 | -115.13856 | 313° | 49km/h | 33756m | -0.0m/s | -31.1°C | 0% | 0hPa | 0V | 00:00:00 | 00:00:00 | 00:00:00 | |
| KE7DJD | 2026-09-06 00:42:45 | 41.48980 | -115.13827 | 204° | 62km/h | 33640m | 3.0m/s | -32.4°C | 0% | 0hPa | 0V | 00:00:00 | 00:00:00 | 00:00:00 | |
| KE7DJD | 2026-09-06 00:42:23 | 41.48999 | -115.13737 | 121° | 44km/h | 33514m | 3.1m/s | -32.8°C | 0% | 0hPa | 0V | 00:00:00 | 00:00:00 | 00:00:00 | |
| KE7DJD | 2026-09-06 00:42:03 | 41.49058 | -115.13702 | 276° | 57km/h | 33396m | 5.6m/s | -33.3°C | 0% | 0hPa | 0V | 00:00:00 | 00:00:00 | 00:00:00 | |
| KE7DJD | 2026-09-06 00:41:42 | 41.49056 | -115.13678 | 120° | 40km/h | 33284m | 7.3m/s | -33.4°C | 0% | 0hPa | 0V | 00:00:00 | 00:00:00 | 00:00:00 | |
| KE7DJD | 2026-09-06 00:41:22 | 41.49123 | -115.13647 | 194° | 38km/h | 33144m | 2.5m/s | -33.3°C | 0% | 0hPa | 0V | 00:00:00 | 00:00:00 | 00:00:00 | |
| KE7DJD | 2026-09-06 00:41:02 | 41.49193 | -115.13513 | 277° | 49km/h | 33044m | 1.5m/s | -33.5°C | 0% | 0hPa | 0V | 00:00:00 | 00:00:00 | 00:00:00 | |
| KE7DJD | 2026-09-06 00:40:42 | 41.49230 | -115.13495 | 81° | 33km/h | 32932m | 9.0m/s | -33.2°C | 0% | 0hPa | 0V | 00:00:00 | 00:00:00 | 00:00:00 | |
| KE7DJD | 2026-09-06 00:40:20 | 41.49298 | -115.13500 | 291° | 44km/h | 32801m | 11.2m/s | -33.8°C | 0% | 0hPa | 0V | 00:00:00 | 00:00:00 | 00:00:00 | |
| KE7DJD | 2026-09-06 00:39:59 | 41.49310 | -115.13462 | 125° | 24km/h | 32682m | 9.0m/s | -34.6°C | 0% | 0hPa | 0V | 00:00:00 | 00:00:00 | 00:00:00 | |
| KE7DJD | 2026-09-06 00:39:38 | 41.49390 | -115.13450 | 260° | 29km/h | 32556m | 3.6m/s | -34.7°C | 0% | 0hPa | 0V | 00:00:00 | 00:00:00 | 00:00:00 | |
| KE7DJD | 2026-09-06 00:39:14 | 41.49439 | -115.13500 | 219° | 46km/h | 32411m | 9.9m/s | -34.6°C | 0% | 0hPa | 0V | 00:00:00 | 00:00:00 | 00:00:00 | |
| KE7DJD | 2026-09-06 00:38:53 | 41.49510 | -115.13509 | 113° | 55km/h | 32265m | 2.8m/s | -35.0°C | 0% | 0hPa | 0V | 00:00:00 | 00:00:00 | 00:00:00 | |
| KE7DJD | 2026-09-06 00:38:32 | 41.49556 | -115.13534 | 166° | 31km/h | 32152m | 4.2m/s | -35.6°C | 0% | 0hPa | 0V | 00:00:00 | 00:00:00 | 00:00:00 | |
| KE7DJD | 2026-09-06 00:38:12 | 41.49641 | -115.13436 | 268° | 40km/h | 32015m | 1.5m/s | -35.8°C | 0% | 0hPa | 0V | 00:00:00 | 00:00:00 | 00:00:00 | |
| KE7DJD | 2026-09-06 00:37:51 | 41.49764 | -115.13319 | 156° | 51km/h | 31885m | 2.0m/s | -35.4°C | 0% | 0hPa | 0V | 00:00:00 | 00:00:00 | 00:00:00 | |
| KE7DJD | 2026-09-06 00:37:31 | 41.49868 | -115.13264 | 283° | 26km/h | 31763m | 9.5m/s | -34.8°C | 0% | 0hPa | 0V | 00:00:00 | 00:00:00 | 00:00:00 | |
| KE7DJD | 2026-09-06 00:37:10 | 41.49943 | -115.13257 | 151° | 53km/h | 31628m | 8.8m/s | -34.3°C | 0% | 0hPa | 0V | 00:00:00 | 00:00:00 | 00:00:00 | |
| KE7DJD | 2026-09-06 00:36:50 | 41.50025 | -115.13287 | 186° | 47km/h | 31516m | -0.0m/s | -34.1°C | 0% | 0hPa | 0V | 00:00:00 | 00:00:00 | 00:00:00 | |
| KE7DJD | 2026-09-06 00:36:28 | 41.50041 | -115.13332 | 61° | 27km/h | 31391m | 3.6m/s | -34.4°C | 0% | 0hPa | 0V | 00:00:00 | 00:00:00 | 00:00:00 | |
| KE7DJD | 2026-09-06 00:36:06 | 41.50070 | -115.13377 | 272° | 22km/h | 31273m | 3.5m/s | -34.7°C | 0% | 0hPa | 0V | 00:00:00 | 00:00:00 | 00:00:00 | |
| KE7DJD | 2026-09-06 00:35:45 | 41.50056 | -115.13385 | 89° | 24km/h | 31150m | 3.0m/s | -35.1°C | 0% | 0hPa | 0V | 00:00:00 | 00:00:00 | 00:00:00 | |
| KE7DJD | 2026-09-06 00:35:25 | 41.50118 | -115.13386 | 193° | 20km/h | 31033m | 3.7m/s | -34.9°C | 0% | 0hPa | 0V | 00:00:00 | 00:00:00 | 00:00:00 | |
| KE7DJD | 2026-09-06 00:35:05 | 41.50174 | -115.13427 | 61° | 15km/h | 30915m | 1.2m/s | -34.7°C | 0% | 0hPa | 0V | 00:00:00 | 00:00:00 | 00:00:00 | |
| KE7DJD | 2026-09-06 00:34:44 | 41.50274 | -115.13416 | 175° | 44km/h | 30796m | 2.2m/s | -35.0°C | 0% | 0hPa | 0V | 00:00:00 | 00:00:00 | 00:00:00 | |
| KE7DJD | 2026-09-06 00:34:22 | 41.50312 | -115.13417 | 270° | 20km/h | 30670m | 6.7m/s | -35.3°C | 0% | 0hPa | 0V | 00:00:00 | 00:00:00 | 00:00:00 | |
| KE7DJD | 2026-09-06 00:34:02 | 41.50344 | -115.13406 | 196° | 35km/h | 30549m | 2.6m/s | -35.3°C | 0% | 0hPa | 0V | 00:00:00 | 00:00:00 | 00:00:00 | |
| KE7DJD | 2026-09-06 00:33:41 | 41.50334 | -115.13410 | 22° | 37km/h | 30431m | 0.2m/s | -36.2°C | 0% | 0hPa | 0V | 00:00:00 | 00:00:00 | 00:00:00 | |
| KE7DJD | 2026-09-06 00:33:20 | 41.50294 | -115.13447 | 35° | 5km/h | 30307m | 3.0m/s | -36.9°C | 0% | 0hPa | 0V | 00:00:00 | 00:00:00 | 00:00:00 | |
| KE7DJD | 2026-09-06 00:32:58 | 41.50204 | -115.13450 | 17° | 9km/h | 30183m | 8.1m/s | -36.9°C | 0% | 0hPa | 0V | 00:00:00 | 00:00:00 | 00:00:00 | |
| KE7DJD | 2026-09-06 00:32:38 | 41.50189 | -115.13379 | 273° | 33km/h | 30055m | 5.1m/s | -36.7°C | 0% | 0hPa | 0V | 00:00:00 | 00:00:00 | 00:00:00 | |
| KE7DJD | 2026-09-06 00:32:15 | 41.50140 | -115.13283 | 231° | 44km/h | 29922m | 8.8m/s | -37.4°C | 0% | 0hPa | 0V | 00:00:00 | 00:00:00 | 00:00:00 | |
| KE7DJD | 2026-09-06 00:31:52 | 41.50069 | -115.13264 | 359° | 38km/h | 29781m | 3.8m/s | -38.2°C | 0% | 0hPa | 0V | 00:00:00 | 00:00:00 | 00:00:00 | |
| KE7DJD | 2026-09-06 00:31:31 | 41.49982 | -115.13206 | 338° | 18km/h | 29645m | 8.4m/s | -38.7°C | 0% | 0hPa | 0V | 00:00:00 | 00:00:00 | 00:00:00 | |
| KE7DJD | 2026-09-06 00:31:10 | 41.49897 | -115.13161 | 303° | 16km/h | 29516m | 8.6m/s | -38.6°C | 0% | 0hPa | 0V | 00:00:00 | 00:00:00 | 00:00:00 | |
| KE7DJD | 2026-09-06 00:30:48 | 41.49926 | -115.13087 | 205° | 22km/h | 29377m | 8.7m/s | -39.6°C | 0% | 0hPa | 0V | 00:00:00 | 00:00:00 | 00:00:00 | |
| KE7DJD | 2026-09-06 00:30:22 | 41.50007 | -115.13061 | 232° | 51km/h | 29220m | 1.8m/s | -39.3°C | 0% | 0hPa | 0V | 00:00:00 | 00:00:00 | 00:00:00 | |
| KE7DJD | 2026-09-06 00:30:00 | 41.50053 | -115.13084 | 230° | 5km/h | 29089m | 7.2m/s | -38.9°C | 0% | 0hPa | 0V | 00:00:00 | 00:00:00 | 00:00:00 | |
| KE7DJD | 2026-09-06 00:29:39 | 41.50068 | -115.13107 | 74° | 5km/h | 28970m | 5.4m/s | -38.2°C | 0% | 0hPa | 0V | 00:00:00 | 00:00:00 | 00:00:00 | |
| KE7DJD | 2026-09-06 00:29:19 | 41.50060 | -115.13226 | 64° | 5km/h | 28847m | 8.7m/s | -38.2°C | 0% | 0hPa | 0V | 00:00:00 | 00:00:00 | 00:00:00 | |
| KE7DJD | 2026-09-06 00:28:58 | 41.50012 | -115.13268 | 59° | 5km/h | 28726m | 7.2m/s | -38.1°C | 0% | 0hPa | 0V | 00:00:00 | 00:00:00 | 00:00:00 | |
| KE7DJD | 2026-09-06 00:28:38 | 41.49999 | -115.13307 | 247° | 20km/h | 28598m | 8.2m/s | -38.2°C | 0% | 0hPa | 0V | 00:00:00 | 00:00:00 | 00:00:00 | |
| KE7DJD | 2026-09-06 00:28:17 | 41.50045 | -115.13302 | 85° | 20km/h | 28469m | 3.8m/s | -37.7°C | 0% | 0hPa | 0V | 00:00:00 | 00:00:00 | 00:00:00 | |
| KE7DJD | 2026-09-06 00:27:55 | 41.50068 | -115.13303 | 161° | 16km/h | 28342m | 5.9m/s | -37.8°C | 0% | 0hPa | 0V | 00:00:00 | 00:00:00 | 00:00:00 | |
| KE7DJD | 2026-09-06 00:27:34 | 41.50072 | -115.13347 | 238° | 15km/h | 28212m | 7.5m/s | -38.5°C | 0% | 0hPa | 0V | 00:00:00 | 00:00:00 | 00:00:00 | |
| KE7DJD | 2026-09-06 00:27:14 | 41.50073 | -115.13367 | 65° | 22km/h | 28082m | 4.8m/s | -39.6°C | 0% | 0hPa | 0V | 00:00:00 | 00:00:00 | 00:00:00 | |
| KE7DJD | 2026-09-06 00:26:53 | 41.50079 | -115.13392 | 88° | 16km/h | 27960m | 7.9m/s | -41.0°C | 0% | 0hPa | 0V | 00:00:00 | 00:00:00 | 00:00:00 | |
| KE7DJD | 2026-09-06 00:26:31 | 41.50036 | -115.13412 | 55° | 4km/h | 27828m | 6.7m/s | -41.3°C | 0% | 0hPa | 0V | 00:00:00 | 00:00:00 | 00:00:00 | |
| KE7DJD | 2026-09-06 00:26:10 | 41.49991 | -115.13446 | 301° | 13km/h | 27699m | 7.5m/s | -41.6°C | 0% | 0hPa | 0V | 00:00:00 | 00:00:00 | 00:00:00 | |
| KE7DJD | 2026-09-06 00:25:50 | 41.49930 | -115.13462 | 26° | 24km/h | 27576m | 2.8m/s | -41.8°C | 0% | 0hPa | 0V | 00:00:00 | 00:00:00 | 00:00:00 | |
| KE7DJD | 2026-09-06 00:25:32 | 41.49827 | -115.13381 | 7° | 15km/h | 27450m | 5.7m/s | -42.9°C | 0% | 0hPa | 0V | 00:00:00 | 00:00:00 | 00:00:00 | |
| KE7DJD | 2026-09-06 00:25:08 | 41.49731 | -115.13277 | 289° | 51km/h | 27338m | 5.2m/s | -43.0°C | 0% | 0hPa | 0V | 00:00:00 | 00:00:00 | 00:00:00 | |
| KE7DJD | 2026-09-06 00:24:48 | 41.49709 | -115.13200 | 257° | 4km/h | 27224m | 3.7m/s | -42.6°C | 0% | 0hPa | 0V | 00:00:00 | 00:00:00 | 00:00:00 | |
| KE7DJD | 2026-09-06 00:24:28 | 41.49687 | -115.13120 | 60° | 4km/h | 27103m | 7.7m/s | -42.5°C | 0% | 0hPa | 0V | 00:00:00 | 00:00:00 | 00:00:00 | |
| KE7DJD | 2026-09-06 00:24:07 | 41.49675 | -115.13033 | 247° | 35km/h | 26979m | 4.9m/s | -43.5°C | 0% | 0hPa | 0V | 00:00:00 | 00:00:00 | 00:00:00 | |
| KE7DJD | 2026-09-06 00:23:46 | 41.49695 | -115.12966 | 219° | 7km/h | 26855m | 6.9m/s | -43.0°C | 0% | 0hPa | 0V | 00:00:00 | 00:00:00 | 00:00:00 | |
| KE7DJD | 2026-09-06 00:23:25 | 41.49735 | -115.12898 | 279° | 13km/h | 26734m | 6.5m/s | -42.6°C | 0% | 0hPa | 0V | 00:00:00 | 00:00:00 | 00:00:00 | |
| KE7DJD | 2026-09-06 00:23:05 | 41.49765 | -115.12762 | 294° | 15km/h | 26615m | 6.1m/s | -42.5°C | 0% | 0hPa | 0V | 00:00:00 | 00:00:00 | 00:00:00 | |
| KE7DJD | 2026-09-06 00:22:44 | 41.49801 | -115.12577 | 283° | 37km/h | 26492m | 2.5m/s | -42.3°C | 0% | 0hPa | 0V | 00:00:00 | 00:00:00 | 00:00:00 | |
| KE7DJD | 2026-09-06 00:22:24 | 41.49865 | -115.12324 | 271° | 31km/h | 26377m | 8.1m/s | -42.2°C | 0% | 0hPa | 0V | 00:00:00 | 00:00:00 | 00:00:00 | |
| KE7DJD | 2026-09-06 00:22:04 | 41.49973 | -115.12152 | 207° | 26km/h | 26258m | 7.1m/s | -42.2°C | 0% | 0hPa | 0V | 00:00:00 | 00:00:00 | 00:00:00 | |
| KE7DJD | 2026-09-06 00:21:43 | 41.50072 | -115.12086 | 181° | 31km/h | 26147m | 2.0m/s | -43.2°C | 0% | 0hPa | 0V | 00:00:00 | 00:00:00 | 00:00:00 | |
| KE7DJD | 2026-09-06 00:21:23 | 41.50130 | -115.12021 | 221° | 29km/h | 26034m | 6.9m/s | -43.4°C | 0% | 0hPa | 0V | 00:00:00 | 00:00:00 | 00:00:00 | |
| KE7DJD | 2026-09-06 00:21:02 | 41.50229 | -115.11912 | 221° | 27km/h | 25923m | 6.2m/s | -43.9°C | 0% | 0hPa | 0V | 00:00:00 | 00:00:00 | 00:00:00 | |
| KE7DJD | 2026-09-06 00:20:42 | 41.50332 | -115.11836 | 137° | 9km/h | 25805m | 3.1m/s | -43.8°C | 0% | 0hPa | 0V | 00:00:00 | 00:00:00 | 00:00:00 | |
| KE7DJD | 2026-09-06 00:20:21 | 41.50401 | -115.11785 | 9° | 7km/h | 25685m | 4.8m/s | -44.0°C | 0% | 0hPa | 0V | 00:00:00 | 00:00:00 | 00:00:00 | |
| KE7DJD | 2026-09-06 00:20:01 | 41.50425 | -115.11710 | 299° | 20km/h | 25574m | 6.5m/s | -44.0°C | 0% | 0hPa | 0V | 00:00:00 | 00:00:00 | 00:00:00 | |
| KE7DJD | 2026-09-06 00:19:40 | 41.50464 | -115.11629 | 221° | 15km/h | 25463m | 7.0m/s | -44.2°C | 0% | 0hPa | 0V | 00:00:00 | 00:00:00 | 00:00:00 | |
| KE7DJD | 2026-09-06 00:19:20 | 41.50572 | -115.11530 | 212° | 35km/h | 25347m | 5.3m/s | -44.2°C | 0% | 0hPa | 0V | 00:00:00 | 00:00:00 | 00:00:00 | |
| KE7DJD | 2026-09-06 00:18:59 | 41.50684 | -115.11440 | 237° | 38km/h | 25234m | 3.8m/s | -44.1°C | 0% | 0hPa | 0V | 00:00:00 | 00:00:00 | 00:00:00 | |
| KE7DJD | 2026-09-06 00:18:39 | 41.50748 | -115.11356 | 230° | 26km/h | 25118m | 3.1m/s | -44.1°C | 0% | 0hPa | 0V | 00:00:00 | 00:00:00 | 00:00:00 | |
| KE7DJD | 2026-09-06 00:18:17 | 41.50777 | -115.11278 | 216° | 44km/h | 25005m | 5.0m/s | -44.3°C | 0% | 0hPa | 0V | 00:00:00 | 00:00:00 | 00:00:00 | |
| KE7DJD | 2026-09-06 00:17:57 | 41.50867 | -115.11241 | 199° | 13km/h | 24900m | 7.2m/s | -44.6°C | 0% | 0hPa | 0V | 00:00:00 | 00:00:00 | 00:00:00 | |
| KE7DJD | 2026-09-06 00:17:36 | 41.50914 | -115.11242 | 343° | 4km/h | 24785m | 5.8m/s | -46.0°C | 0% | 0hPa | 0V | 00:00:00 | 00:00:00 | 00:00:00 | |
| KE7DJD | 2026-09-06 00:17:16 | 41.50932 | -115.11282 | 30° | 5km/h | 24681m | 2.0m/s | -46.3°C | 0% | 0hPa | 0V | 00:00:00 | 00:00:00 | 00:00:00 | |
| KE7DJD | 2026-09-06 00:16:56 | 41.50943 | -115.11341 | 90° | 11km/h | 24571m | 5.8m/s | -46.1°C | 0% | 0hPa | 0V | 00:00:00 | 00:00:00 | 00:00:00 | |
| KE7DJD | 2026-09-06 00:16:35 | 41.50933 | -115.11349 | 302° | 33km/h | 24462m | 5.5m/s | -46.1°C | 0% | 0hPa | 0V | 00:00:00 | 00:00:00 | 00:00:00 | |
| KE7DJD | 2026-09-06 00:16:15 | 41.50902 | -115.11292 | 298° | 9km/h | 24347m | 5.9m/s | -46.9°C | 0% | 0hPa | 0V | 00:00:00 | 00:00:00 | 00:00:00 | |
| KE7DJD | 2026-09-06 00:15:54 | 41.50844 | -115.11226 | 348° | 16km/h | 24243m | 7.4m/s | -47.7°C | 0% | 0hPa | 0V | 00:00:00 | 00:00:00 | 00:00:00 | |
| KE7DJD | 2026-09-06 00:15:34 | 41.50800 | -115.11036 | 284° | 42km/h | 24130m | 4.3m/s | -47.8°C | 0% | 0hPa | 0V | 00:00:00 | 00:00:00 | 00:00:00 | |
| KE7DJD | 2026-09-06 00:15:13 | 41.50805 | -115.10860 | 211° | 16km/h | 24017m | 8.0m/s | -48.0°C | 0% | 0hPa | 0V | 00:00:00 | 00:00:00 | 00:00:00 | |
| KE7DJD | 2026-09-06 00:14:53 | 41.50857 | -115.10769 | 207° | 24km/h | 23901m | 7.4m/s | -48.2°C | 0% | 0hPa | 0V | 00:00:00 | 00:00:00 | 00:00:00 | |
| KE7DJD | 2026-09-06 00:14:31 | 41.50900 | -115.10715 | 271° | 15km/h | 23783m | 2.8m/s | -48.1°C | 0% | 0hPa | 0V | 00:00:00 | 00:00:00 | 00:00:00 | |
| KE7DJD | 2026-09-06 00:14:10 | 41.50891 | -115.10702 | 83° | 5km/h | 23668m | 6.5m/s | -48.6°C | 0% | 0hPa | 0V | 00:00:00 | 00:00:00 | 00:00:00 | |
| KE7DJD | 2026-09-06 00:13:50 | 41.50851 | -115.10754 | 33° | 4km/h | 23550m | 5.2m/s | -48.9°C | 0% | 0hPa | 0V | 00:00:00 | 00:00:00 | 00:00:00 | |
| KE7DJD | 2026-09-06 00:13:29 | 41.50766 | -115.10785 | 45° | 24km/h | 23429m | 4.8m/s | -48.6°C | 0% | 0hPa | 0V | 00:00:00 | 00:00:00 | 00:00:00 | |
| KE7DJD | 2026-09-06 00:13:08 | 41.50704 | -115.10775 | 323° | 9km/h | 23314m | 5.2m/s | -48.0°C | 0% | 0hPa | 0V | 00:00:00 | 00:00:00 | 00:00:00 | |
| KE7DJD | 2026-09-06 00:12:27 | 41.50619 | -115.10621 | 264° | 15km/h | 23088m | 6.8m/s | -47.5°C | 0% | 0hPa | 0V | 00:00:00 | 00:00:00 | 00:00:00 | |
| KE7DJD | 2026-09-06 00:12:07 | 41.50657 | -115.10480 | 235° | 40km/h | 22969m | 5.2m/s | -47.1°C | 0% | 0hPa | 0V | 00:00:00 | 00:00:00 | 00:00:00 | |
| KE7DJD | 2026-09-06 00:11:47 | 41.50661 | -115.10392 | 290° | 16km/h | 22860m | 5.7m/s | -47.4°C | 0% | 0hPa | 0V | 00:00:00 | 00:00:00 | 00:00:00 | |
| KE7DJD | 2026-09-06 00:11:26 | 41.50628 | -115.10332 | 309° | 11km/h | 22751m | 5.8m/s | -47.5°C | 0% | 0hPa | 0V | 00:00:00 | 00:00:00 | 00:00:00 | |
| KE7DJD | 2026-09-06 00:11:04 | 41.50588 | -115.10250 | 258° | 20km/h | 22641m | 5.9m/s | -47.5°C | 0% | 0hPa | 0V | 00:00:00 | 00:00:00 | 00:00:00 | |
| KE7DJD | 2026-09-06 00:10:44 | 41.50594 | -115.10132 | 287° | 20km/h | 22535m | 5.6m/s | -47.9°C | 0% | 0hPa | 0V | 00:00:00 | 00:00:00 | 00:00:00 | |
| KE7DJD | 2026-09-06 00:10:24 | 41.50601 | -115.10058 | 0° | 0km/h | 22428m | 5.1m/s | -48.1°C | 0% | 0hPa | 0V | 00:00:00 | 00:00:00 | 00:00:00 | |
| KE7DJD | 2026-09-06 00:10:03 | 41.50599 | -115.10019 | 219° | 5km/h | 22328m | 4.5m/s | -48.1°C | 0% | 0hPa | 0V | 00:00:00 | 00:00:00 | 00:00:00 | |
| KE7DJD | 2026-09-06 00:09:43 | 41.50587 | -115.09978 | 348° | 7km/h | 22224m | 4.8m/s | -48.2°C | 0% | 0hPa | 0V | 00:00:00 | 00:00:00 | 00:00:00 | |
| KE7DJD | 2026-09-06 00:09:22 | 41.50567 | -115.09897 | 306° | 22km/h | 22125m | 3.7m/s | -48.2°C | 0% | 0hPa | 0V | 00:00:00 | 00:00:00 | 00:00:00 | |
| KE7DJD | 2026-09-06 00:08:41 | 41.50530 | -115.09606 | 287° | 22km/h | 21914m | 6.3m/s | -48.1°C | 0% | 0hPa | 0V | 00:00:00 | 00:00:00 | 00:00:00 | |
| KE7DJD | 2026-09-06 00:08:21 | 41.50496 | -115.09482 | 239° | 4km/h | 21802m | 4.3m/s | -47.8°C | 0% | 0hPa | 0V | 00:00:00 | 00:00:00 | 00:00:00 | |
| KE7DJD | 2026-09-06 00:07:59 | 41.50512 | -115.09451 | 270° | 4km/h | 21693m | 5.8m/s | -48.5°C | 0% | 0hPa | 0V | 00:00:00 | 00:00:00 | 00:00:00 | |
| KE7DJD | 2026-09-06 00:07:38 | 41.50488 | -115.09399 | 298° | 26km/h | 21584m | 4.7m/s | -49.0°C | 0% | 0hPa | 0V | 00:00:00 | 00:00:00 | 00:00:00 | |
| KE7DJD | 2026-09-06 00:07:18 | 41.50446 | -115.09260 | 281° | 27km/h | 21475m | 5.8m/s | -49.5°C | 0% | 0hPa | 0V | 00:00:00 | 00:00:00 | 00:00:00 | |
| KE7DJD | 2026-09-06 00:06:57 | 41.50437 | -115.09066 | 297° | 27km/h | 21361m | 7.2m/s | -49.0°C | 0% | 0hPa | 0V | 00:00:00 | 00:00:00 | 00:00:00 | |
| KE7DJD | 2026-09-06 00:06:36 | 41.50422 | -115.08938 | 273° | 13km/h | 21256m | 6.4m/s | -48.9°C | 0% | 0hPa | 0V | 00:00:00 | 00:00:00 | 00:00:00 | |
| KE7DJD | 2026-09-06 00:06:16 | 41.50423 | -115.08836 | 238° | 15km/h | 21142m | 6.7m/s | -49.3°C | 0% | 0hPa | 0V | 00:00:00 | 00:00:00 | 00:00:00 | |
| KE7DJD | 2026-09-06 00:05:55 | 41.50396 | -115.08795 | 357° | 13km/h | 21030m | 5.4m/s | -49.6°C | 0% | 0hPa | 0V | 00:00:00 | 00:00:00 | 00:00:00 | |
| KE7DJD | 2026-09-06 00:05:35 | 41.50300 | -115.08788 | 350° | 16km/h | 20921m | 6.3m/s | -49.7°C | 0% | 0hPa | 0V | 00:00:00 | 00:00:00 | 00:00:00 | |
| KE7DJD | 2026-09-06 00:05:14 | 41.50203 | -115.08745 | 350° | 22km/h | 20817m | 5.3m/s | -49.5°C | 0% | 0hPa | 0V | 00:00:00 | 00:00:00 | 00:00:00 | |
| KE7DJD | 2026-09-06 00:04:54 | 41.50115 | -115.08652 | 317° | 29km/h | 20708m | 3.4m/s | -49.3°C | 0% | 0hPa | 0V | 00:00:00 | 00:00:00 | 00:00:00 | |
| KE7DJD | 2026-09-06 00:04:33 | 41.50060 | -115.08542 | 277° | 15km/h | 20600m | 5.3m/s | -50.3°C | 0% | 0hPa | 0V | 00:00:00 | 00:00:00 | 00:00:00 | |
| KE7DJD | 2026-09-06 00:04:12 | 41.50047 | -115.08478 | 286° | 16km/h | 20493m | 5.2m/s | -50.6°C | 0% | 0hPa | 0V | 00:00:00 | 00:00:00 | 00:00:00 | |
| KE7DJD | 2026-09-06 00:03:52 | 41.50085 | -115.08449 | 160° | 13km/h | 20388m | 5.3m/s | -51.0°C | 0% | 0hPa | 0V | 00:00:00 | 00:00:00 | 00:00:00 | |
| KE7DJD | 2026-09-06 00:03:31 | 41.50145 | -115.08442 | 0° | 0km/h | 20286m | 7.2m/s | -51.4°C | 0% | 0hPa | 0V | 00:00:00 | 00:00:00 | 00:00:00 | |
| KE7DJD | 2026-09-06 00:03:16 | 41.50129 | -115.08474 | 7° | 7km/h | 20181m | 5.1m/s | -51.9°C | 0% | 0hPa | 0V | 00:00:00 | 00:00:00 | 00:00:00 | |
| KE7DJD | 2026-09-06 00:02:59 | 41.50096 | -115.08493 | 353° | 16km/h | 20082m | 5.3m/s | -52.3°C | 0% | 0hPa | 0V | 00:00:00 | 00:00:00 | 00:00:00 | |
| KE7DJD | 2026-09-06 00:02:33 | 41.50052 | -115.08526 | 32° | 7km/h | 19977m | 5.6m/s | -52.2°C | 0% | 0hPa | 0V | 00:00:00 | 00:00:00 | 00:00:00 | |
| KE7DJD | 2026-09-06 00:02:09 | 41.49995 | -115.08545 | 98° | 9km/h | 19871m | 3.3m/s | -52.6°C | 0% | 0hPa | 0V | 00:00:00 | 00:00:00 | 00:00:00 | |
| KE7DJD | 2026-09-06 00:01:54 | 41.49938 | -115.08552 | 353° | 9km/h | 19773m | 6.0m/s | -52.0°C | 0% | 0hPa | 0V | 00:00:00 | 00:00:00 | 00:00:00 | |
| KE7DJD | 2026-09-06 00:01:33 | 41.49887 | -115.08526 | 317° | 16km/h | 19669m | 5.5m/s | -51.5°C | 0% | 0hPa | 0V | 00:00:00 | 00:00:00 | 00:00:00 | |
| KE7DJD | 2026-09-06 00:01:10 | 41.49805 | -115.08461 | 10° | 26km/h | 19562m | 5.1m/s | -50.9°C | 0% | 0hPa | 0V | 00:00:00 | 00:00:00 | 00:00:00 | |
| KE7DJD | 2026-09-06 00:00:48 | 41.49726 | -115.08429 | 330° | 26km/h | 19463m | 6.0m/s | -50.6°C | 0% | 0hPa | 0V | 00:00:00 | 00:00:00 | 00:00:00 | |
| KE7DJD | 2026-09-06 00:00:27 | 41.49647 | -115.08380 | 310° | 18km/h | 19355m | 6.2m/s | -50.7°C | 0% | 0hPa | 0V | 00:00:00 | 00:00:00 | 00:00:00 | |
| KE7DJD | 2026-09-06 00:00:09 | 41.49578 | -115.08301 | 303° | 24km/h | 19249m | 5.3m/s | -50.1°C | 0% | 0hPa | 0V | 00:00:00 | 00:00:00 | 00:00:00 | |
| KE7DJD | 2026-09-05 23:59:46 | 41.49512 | -115.08220 | 314° | 7km/h | 19139m | 4.4m/s | -49.6°C | 0% | 0hPa | 0V | 00:00:00 | 00:00:00 | 00:00:00 | |
| KE7DJD | 2026-09-05 23:59:25 | 41.49429 | -115.08164 | 342° | 24km/h | 19031m | 6.1m/s | -49.0°C | 0% | 0hPa | 0V | 00:00:00 | 00:00:00 | 00:00:00 | |
| KE7DJD | 2026-09-05 23:59:03 | 41.49339 | -115.08144 | 341° | 15km/h | 18921m | 6.2m/s | -48.3°C | 0% | 0hPa | 0V | 00:00:00 | 00:00:00 | 00:00:00 | |
| KE7DJD | 2026-09-05 23:58:43 | 41.49275 | -115.08227 | 61° | 24km/h | 18812m | 5.4m/s | -52.4°C | 0% | 0hPa | 0V | 00:00:00 | 00:00:00 | 00:00:00 | |
| KE7DJD | 2026-09-05 23:58:22 | 41.49210 | -115.08380 | 64° | 20km/h | 18706m | 5.9m/s | -52.4°C | 0% | 0hPa | 0V | 00:00:00 | 00:00:00 | 00:00:00 | |
| KE7DJD | 2026-09-05 23:58:01 | 41.49155 | -115.08525 | 70° | 27km/h | 18605m | 6.0m/s | -52.7°C | 0% | 0hPa | 0V | 00:00:00 | 00:00:00 | 00:00:00 | |
| KE7DJD | 2026-09-05 23:57:41 | 41.49068 | -115.08678 | 52° | 35km/h | 18497m | 6.0m/s | -52.9°C | 0% | 0hPa | 0V | 00:00:00 | 00:00:00 | 00:00:00 | |
| KE7DJD | 2026-09-05 23:57:20 | 41.48951 | -115.08810 | 13° | 18km/h | 18406m | 5.8m/s | -52.2°C | 0% | 0hPa | 0V | 00:00:00 | 00:00:00 | 00:00:00 | |
| KE7DJD | 2026-09-05 23:56:38 | 41.48772 | -115.08986 | 68° | 33km/h | 18181m | 8.2m/s | -50.5°C | 0% | 0hPa | 0V | 00:00:00 | 00:00:00 | 00:00:00 | |
| KE7DJD | 2026-09-05 23:56:18 | 41.48669 | -115.09116 | 60° | 24km/h | 18054m | 6.5m/s | -49.7°C | 0% | 0hPa | 0V | 00:00:00 | 00:00:00 | 00:00:00 | |
| KE7DJD | 2026-09-05 23:55:58 | 41.48590 | -115.09364 | 64° | 57km/h | 17946m | 4.5m/s | -49.4°C | 0% | 0hPa | 0V | 00:00:00 | 00:00:00 | 00:00:00 | |
| KE7DJD | 2026-09-05 23:55:36 | 41.48491 | -115.09653 | 53° | 44km/h | 17846m | 5.9m/s | -49.1°C | 0% | 0hPa | 0V | 00:00:00 | 00:00:00 | 00:00:00 | |
| KE7DJD | 2026-09-05 23:55:15 | 41.48353 | -115.09929 | 61° | 53km/h | 17742m | 6.5m/s | -48.4°C | 0% | 0hPa | 0V | 00:00:00 | 00:00:00 | 00:00:00 | |
| KE7DJD | 2026-09-05 23:54:55 | 41.48195 | -115.10212 | 59° | 46km/h | 17639m | 2.9m/s | -48.3°C | 0% | 0hPa | 0V | 00:00:00 | 00:00:00 | 00:00:00 | |
| KE7DJD | 2026-09-05 23:54:34 | 41.47960 | -115.10507 | 39° | 57km/h | 17531m | 4.8m/s | -48.8°C | 0% | 0hPa | 0V | 00:00:00 | 00:00:00 | 00:00:00 | |
| KE7DJD | 2026-09-05 23:54:12 | 41.47673 | -115.10762 | 27° | 62km/h | 17426m | 4.3m/s | -50.7°C | 0% | 0hPa | 0V | 00:00:00 | 00:00:00 | 00:00:00 | |
| KE7DJD | 2026-09-05 23:53:52 | 41.47323 | -115.11013 | 39° | 68km/h | 17325m | 4.9m/s | -52.1°C | 0% | 0hPa | 0V | 00:00:00 | 00:00:00 | 00:00:00 | |
| KE7DJD | 2026-09-05 23:53:31 | 41.46977 | -115.11269 | 24° | 82km/h | 17233m | 3.9m/s | -52.6°C | 0% | 0hPa | 0V | 00:00:00 | 00:00:00 | 00:00:00 | |
| KE7DJD | 2026-09-05 23:53:10 | 41.46629 | -115.11476 | 23° | 71km/h | 17147m | 4.5m/s | -52.8°C | 0% | 0hPa | 0V | 00:00:00 | 00:00:00 | 00:00:00 | |
| KE7DJD | 2026-09-05 23:52:50 | 41.46277 | -115.11608 | 14° | 66km/h | 17061m | 4.2m/s | -53.5°C | 0% | 0hPa | 0V | 00:00:00 | 00:00:00 | 00:00:00 | |
| KE7DJD | 2026-09-05 23:52:29 | 41.45936 | -115.11691 | 18° | 60km/h | 16966m | 3.1m/s | -53.5°C | 0% | 0hPa | 0V | 00:00:00 | 00:00:00 | 00:00:00 | |
| KE7DJD | 2026-09-05 23:52:08 | 41.45613 | -115.11738 | 6° | 57km/h | 16876m | 3.3m/s | -53.3°C | 0% | 0hPa | 0V | 00:00:00 | 00:00:00 | 00:00:00 | |
| KE7DJD | 2026-09-05 23:51:48 | 41.45321 | -115.11831 | 20° | 57km/h | 16767m | 6.0m/s | -53.4°C | 0% | 0hPa | 0V | 00:00:00 | 00:00:00 | 00:00:00 | |
| KE7DJD | 2026-09-05 23:51:27 | 41.45095 | -115.11971 | 32° | 69km/h | 16666m | 5.9m/s | -53.2°C | 0% | 0hPa | 0V | 00:00:00 | 00:00:00 | 00:00:00 | |
| KE7DJD | 2026-09-05 23:51:07 | 41.44875 | -115.12165 | 50° | 49km/h | 16542m | 5.0m/s | -53.0°C | 0% | 0hPa | 0V | 00:00:00 | 00:00:00 | 00:00:00 | |
| KE7DJD | 2026-09-05 23:50:45 | 41.44623 | -115.12425 | 22° | 53km/h | 16399m | 8.7m/s | -52.6°C | 0% | 0hPa | 0V | 00:00:00 | 00:00:00 | 00:00:00 | |
| KE7DJD | 2026-09-05 23:50:24 | 41.44340 | -115.12750 | 43° | 75km/h | 16277m | 5.7m/s | -53.4°C | 0% | 0hPa | 0V | 00:00:00 | 00:00:00 | 00:00:00 | |
| KE7DJD | 2026-09-05 23:50:03 | 41.44051 | -115.13077 | 33° | 71km/h | 16178m | 5.7m/s | -53.4°C | 0% | 0hPa | 0V | 00:00:00 | 00:00:00 | 00:00:00 | |
| KE7DJD | 2026-09-05 23:49:43 | 41.43761 | -115.13389 | 44° | 69km/h | 16079m | 4.2m/s | -52.8°C | 0% | 0hPa | 0V | 00:00:00 | 00:00:00 | 00:00:00 | |
| KE7DJD | 2026-09-05 23:49:22 | 41.43495 | -115.13715 | 42° | 68km/h | 15988m | 3.8m/s | -52.8°C | 0% | 0hPa | 0V | 00:00:00 | 00:00:00 | 00:00:00 | |
| KE7DJD | 2026-09-05 23:48:42 | 41.42927 | -115.14425 | 40° | 66km/h | 15799m | 4.2m/s | -52.4°C | 0% | 0hPa | 0V | 00:00:00 | 00:00:00 | 00:00:00 | |
| KE7DJD | 2026-09-05 23:48:21 | 41.42650 | -115.14760 | 45° | 71km/h | 15704m | 4.5m/s | -51.6°C | 0% | 0hPa | 0V | 00:00:00 | 00:00:00 | 00:00:00 | |
| KE7DJD | 2026-09-05 23:48:00 | 41.42387 | -115.15121 | 48° | 75km/h | 15614m | 4.8m/s | -51.8°C | 0% | 0hPa | 0V | 00:00:00 | 00:00:00 | 00:00:00 | |
| KE7DJD | 2026-09-05 23:47:39 | 41.42143 | -115.15470 | 46° | 73km/h | 15527m | 5.1m/s | -51.1°C | 0% | 0hPa | 0V | 00:00:00 | 00:00:00 | 00:00:00 | |
| KE7DJD | 2026-09-05 23:47:19 | 41.41875 | -115.15835 | 44° | 78km/h | 15436m | 5.2m/s | -50.5°C | 0% | 0hPa | 0V | 00:00:00 | 00:00:00 | 00:00:00 | |
| KE7DJD | 2026-09-05 23:46:59 | 41.41583 | -115.16192 | 43° | 88km/h | 15349m | 3.6m/s | -50.2°C | 0% | 0hPa | 0V | 00:00:00 | 00:00:00 | 00:00:00 | |
| KE7DJD | 2026-09-05 23:46:37 | 41.41247 | -115.16556 | 50° | 86km/h | 15254m | 3.7m/s | -49.7°C | 0% | 0hPa | 0V | 00:00:00 | 00:00:00 | 00:00:00 |